createdAt,value
2018-03-07T00:01:45.724Z,125.93
2018-03-07T00:06:47.166Z,119.03
2018-03-07T00:11:48.511Z,130.47
2018-03-07T00:16:49.828Z,119.17
2018-03-07T00:21:51.160Z,115.03
2018-03-07T00:26:52.497Z,122.93
2018-03-07T00:31:53.856Z,118.57
2018-03-07T00:36:55.206Z,126.37
2018-03-07T00:41:56.540Z,130.10
2018-03-07T00:46:58.610Z,128.40
2018-03-07T00:51:59.976Z,148.93
2018-03-07T00:57:01.338Z,132.47
2018-03-07T01:02:03.409Z,127.83
2018-03-07T01:07:04.750Z,131.97
2018-03-07T01:12:06.099Z,127.27
2018-03-07T01:17:07.444Z,124.27
2018-03-07T01:22:08.883Z,134.80
2018-03-07T01:27:10.228Z,123.83
2018-03-07T01:32:11.611Z,137.43
2018-03-07T01:37:12.993Z,131.63
2018-03-07T01:42:14.365Z,137.90
2018-03-07T01:47:16.438Z,142.70
2018-03-07T01:52:17.791Z,125.60
2018-03-07T01:57:19.122Z,120.70
2018-03-07T02:02:20.451Z,123.53
2018-03-07T02:07:22.544Z,132.97
2018-03-07T02:12:24.633Z,122.10
2018-03-07T02:17:25.954Z,129.83
2018-03-07T02:22:28.081Z,138.03
2018-03-07T02:27:29.433Z,120.33
2018-03-07T02:32:30.857Z,118.57
2018-03-07T02:37:32.175Z,123.03
2018-03-07T02:42:33.513Z,145.20
2018-03-07T02:47:34.907Z,133.27
2018-03-07T02:52:36.993Z,122.63
2018-03-07T02:57:38.426Z,120.13
2018-03-07T03:02:39.802Z,127.83
2018-03-07T03:07:41.957Z,139.30
2018-03-07T03:12:43.293Z,142.93
2018-03-07T03:17:45.379Z,139.10
2018-03-07T03:22:46.711Z,151.30
2018-03-07T03:27:48.055Z,144.90
2018-03-07T03:32:49.467Z,157.80
2018-03-07T03:37:51.528Z,147.53
2018-03-07T03:42:52.840Z,140.80
2018-03-07T03:47:54.202Z,144.30
2018-03-07T03:52:55.559Z,151.60
2018-03-07T03:57:57.636Z,134.77
2018-03-07T04:03:00.194Z,151.40
2018-03-07T04:08:01.543Z,151.13
2018-03-07T04:13:02.876Z,145.33
2018-03-07T04:18:04.196Z,154.60
2018-03-07T04:23:06.297Z,144.73
2018-03-07T04:28:08.514Z,145.43
2018-03-07T04:33:09.907Z,149.83
2018-03-07T04:38:11.296Z,138.43
2018-03-07T04:43:12.661Z,149.50
2018-03-07T04:48:13.984Z,149.70
2018-03-07T04:53:15.305Z,169.60
2018-03-07T04:58:17.403Z,155.20
2018-03-07T05:03:18.740Z,161.87
2018-03-07T05:08:20.141Z,155.37
2018-03-07T05:13:21.482Z,144.93
2018-03-07T05:18:23.527Z,136.90
2018-03-07T05:23:24.856Z,132.50
2018-03-07T05:28:26.203Z,136.43
2018-03-07T05:33:27.547Z,136.10
2018-03-07T05:38:28.897Z,152.73
2018-03-07T05:43:31.041Z,145.50
2018-03-07T05:48:32.395Z,154.87
2018-03-07T05:53:33.716Z,132.47
2018-03-07T05:58:35.043Z,144.70
2018-03-07T06:03:36.388Z,144.70
2018-03-07T06:08:37.730Z,139.77
2018-03-07T06:13:39.122Z,140.60
2018-03-07T06:18:47.564Z,141.27
2018-03-07T06:23:49.627Z,139.20
2018-03-07T06:28:50.955Z,125.30
2018-03-07T06:33:53.039Z,131.47
2018-03-07T06:38:54.390Z,135.77
2018-03-07T06:43:55.714Z,138.67
2018-03-07T06:48:57.046Z,127.87
2018-03-07T06:53:58.362Z,125.10
2018-03-07T06:58:59.708Z,136.23
2018-03-07T07:04:01.051Z,130.67
2018-03-07T07:09:02.464Z,132.80
2018-03-07T07:14:03.793Z,132.57
2018-03-07T07:19:05.143Z,123.53
2018-03-07T07:24:06.488Z,131.87
2018-03-07T07:29:07.857Z,130.93
2018-03-07T07:34:10.034Z,132.13
2018-03-07T07:39:11.427Z,163.00
2018-03-07T07:44:12.794Z,132.00
2018-03-07T07:49:14.166Z,132.03
2018-03-07T07:54:15.523Z,128.50
2018-03-07T07:59:16.911Z,139.83
2018-03-07T08:04:18.972Z,144.30
2018-03-07T08:09:20.295Z,125.63
2018-03-07T08:14:22.355Z,131.90
2018-03-07T08:19:23.688Z,123.57
2018-03-07T08:24:25.006Z,141.33
2018-03-07T08:29:26.349Z,127.83
2018-03-07T08:34:27.700Z,133.83
2018-03-07T08:39:29.068Z,122.80
2018-03-07T08:44:30.395Z,127.40
2018-03-07T08:49:31.757Z,122.10
2018-03-07T08:54:33.076Z,134.10
2018-03-07T08:59:34.427Z,136.77
2018-03-07T09:04:35.777Z,124.07
2018-03-07T09:09:37.168Z,137.17
2018-03-07T09:14:38.569Z,124.37
2018-03-07T09:19:46.916Z,138.40
2018-03-07T09:24:48.259Z,124.03
2018-03-07T09:29:49.616Z,131.33
2018-03-07T09:34:51.854Z,132.00
2018-03-07T09:39:53.551Z,128.27
2018-03-07T09:44:55.156Z,124.30
2018-03-07T09:49:56.812Z,129.27
2018-03-07T09:54:59.248Z,130.60
2018-03-07T10:00:00.671Z,134.23
2018-03-07T10:05:02.102Z,126.87
2018-03-07T10:10:04.317Z,136.50
2018-03-07T10:15:05.737Z,134.90
2018-03-07T10:20:07.128Z,140.50
2018-03-07T10:25:08.540Z,138.40
2018-03-07T10:30:09.931Z,139.87
2018-03-07T10:35:12.118Z,145.53
2018-03-07T10:40:15.121Z,129.33
2018-03-07T10:45:16.923Z,134.60
2018-03-07T10:50:19.251Z,137.57
2018-03-07T10:55:21.023Z,137.90
2018-03-07T11:00:29.623Z,129.87
2018-03-07T11:05:31.432Z,149.30
2018-03-07T11:10:32.796Z,143.27
2018-03-07T11:15:35.080Z,133.00
2018-03-07T11:20:38.022Z,149.60
2018-03-07T11:25:40.101Z,138.80
2018-03-07T11:30:41.700Z,137.57
2018-03-07T11:35:43.612Z,139.97
2018-03-07T11:40:46.744Z,143.03
2018-03-07T11:45:50.019Z,135.83
2018-03-07T11:50:52.351Z,133.87
2018-03-07T11:55:54.351Z,136.20
2018-03-07T12:00:57.253Z,140.27
2018-03-07T12:05:58.939Z,147.33
2018-03-07T12:11:01.495Z,134.13
2018-03-07T12:16:03.878Z,142.63
2018-03-07T12:21:06.535Z,170.00
2018-03-07T12:26:08.666Z,145.77
2018-03-07T12:31:10.352Z,141.30
2018-03-07T12:36:12.094Z,140.20
2018-03-07T12:41:14.034Z,151.17
2018-03-07T12:46:16.933Z,143.93
2018-03-07T12:51:18.923Z,164.43
2018-03-07T12:56:21.299Z,139.03
2018-03-07T13:01:23.158Z,150.80
2018-03-07T13:06:25.643Z,154.60
2018-03-07T13:11:30.888Z,135.70
2018-03-07T13:16:32.654Z,138.70
2018-03-07T13:21:35.224Z,134.93
2018-03-07T13:26:37.835Z,137.30
2018-03-07T13:31:39.311Z,140.23
2018-03-07T13:36:40.672Z,132.57
2018-03-07T13:41:43.687Z,134.07
2018-03-07T13:46:45.240Z,134.27
2018-03-07T13:51:47.704Z,126.57
2018-03-07T13:56:50.079Z,133.10
2018-03-07T14:01:52.629Z,146.43
2018-03-07T14:06:54.225Z,131.83
2018-03-07T14:11:56.100Z,136.43
2018-03-07T14:16:58.173Z,131.50
2018-03-07T14:21:59.700Z,121.30
2018-03-07T14:27:01.265Z,119.13
2018-03-07T14:32:03.427Z,108.80
2018-03-07T14:37:04.864Z,114.30
2018-03-07T14:42:07.012Z,119.23
2018-03-07T14:47:08.717Z,129.77
2018-03-07T14:52:10.152Z,116.00
2018-03-07T14:57:12.323Z,117.53
2018-03-07T15:02:13.776Z,135.07
2018-03-07T15:07:15.220Z,124.67
2018-03-07T15:12:16.642Z,122.60
2018-03-07T15:17:18.735Z,118.70
2018-03-07T15:22:20.178Z,121.57
2018-03-07T15:27:21.628Z,110.80
2018-03-07T15:32:23.046Z,119.03
2018-03-07T15:37:24.468Z,129.03
2018-03-07T15:42:25.851Z,122.40
2018-03-07T15:47:27.287Z,111.60
2018-03-07T15:52:29.566Z,105.50
2018-03-07T15:57:31.005Z,103.40
2018-03-07T16:02:33.215Z,108.73
2018-03-07T16:07:35.351Z,105.73
2018-03-07T16:12:36.810Z,100.27
2018-03-07T16:17:38.239Z,98.50
2018-03-07T16:22:39.711Z,109.07
2018-03-07T16:27:41.350Z,110.00
2018-03-07T16:32:42.759Z,108.93
2018-03-07T16:37:44.206Z,114.13
2018-03-07T16:42:45.969Z,116.97
2018-03-07T16:47:48.212Z,112.53
2018-03-07T16:52:49.676Z,119.20
2018-03-07T16:57:51.818Z,127.20
2018-03-07T17:02:53.296Z,125.83
2018-03-07T17:07:54.704Z,130.17
2018-03-07T17:12:56.210Z,122.43
2018-03-07T17:17:57.775Z,139.47
2018-03-07T17:22:59.375Z,139.63
2018-03-07T17:28:00.843Z,135.97
2018-03-07T17:33:02.256Z,150.30
2018-03-07T17:38:03.664Z,135.93
2018-03-07T17:43:05.069Z,150.70
2018-03-07T17:48:06.962Z,149.63
2018-03-07T17:53:08.402Z,149.53
2018-03-07T17:58:09.919Z,143.00
2018-03-07T18:03:11.328Z,135.53
2018-03-07T18:08:13.250Z,134.13
2018-03-07T18:13:15.354Z,117.47
2018-03-07T18:18:17.812Z,162.63
2018-03-07T18:23:20.364Z,137.03
2018-03-07T18:28:22.177Z,134.03
2018-03-07T18:33:24.818Z,139.80
2018-03-07T18:38:26.760Z,133.93
2018-03-07T18:43:30.884Z,138.93
2018-03-07T18:48:32.894Z,146.40
2018-03-07T18:53:38.949Z,157.90
2018-03-07T18:58:43.332Z,146.90
2018-03-07T19:03:45.781Z,153.53
2018-03-07T19:08:47.595Z,167.07
2018-03-07T19:13:50.343Z,145.80
2018-03-07T19:18:53.623Z,160.30
2018-03-07T19:23:55.410Z,161.77
2018-03-07T19:28:57.301Z,261.43
2018-03-07T19:33:58.992Z,152.80
2018-03-07T19:39:00.607Z,156.73
2018-03-07T19:44:02.187Z,152.67
2018-03-07T19:49:04.290Z,154.87
2018-03-07T19:54:06.193Z,149.07
2018-03-07T19:59:07.813Z,145.53
2018-03-07T20:04:09.389Z,149.90
2018-03-07T20:09:11.052Z,148.77
2018-03-07T20:14:12.800Z,146.17
2018-03-07T20:19:14.699Z,142.07
2018-03-07T20:24:16.493Z,146.07
2018-03-07T20:29:19.022Z,153.07
2018-03-07T20:34:21.264Z,135.20
2018-03-07T20:39:23.056Z,135.07
2018-03-07T20:44:25.599Z,141.03
2018-03-07T20:49:27.692Z,123.43
2018-03-07T20:54:35.086Z,136.47
2018-03-07T20:59:36.827Z,134.87
2018-03-07T21:04:38.256Z,143.63
2018-03-07T21:09:39.703Z,145.47
2018-03-07T21:14:41.805Z,146.80
2018-03-07T21:19:43.637Z,140.73
2018-03-07T21:24:45.763Z,150.20
2018-03-07T21:29:47.132Z,155.17
2018-03-07T21:34:48.722Z,164.03
2018-03-07T21:39:52.351Z,153.47
2018-03-07T21:44:55.758Z,143.17
2018-03-07T21:49:57.170Z,138.03
2018-03-07T21:54:58.564Z,124.27
2018-03-07T21:59:59.950Z,139.00
2018-03-07T22:05:01.280Z,117.17
2018-03-07T22:10:02.642Z,125.63
2018-03-07T22:15:04.543Z,114.17
2018-03-07T22:20:06.018Z,118.37
2018-03-07T22:25:07.348Z,117.60
2018-03-07T22:30:09.450Z,123.67
2018-03-07T22:35:14.315Z,114.87
2018-03-07T22:40:15.724Z,102.53
2018-03-07T22:45:17.117Z,95.97
2018-03-07T22:50:19.259Z,96.87
2018-03-07T22:55:20.626Z,83.47
2018-03-07T23:00:28.820Z,73.30
2018-03-07T23:05:30.187Z,69.27
2018-03-07T23:10:31.536Z,68.23
2018-03-07T23:15:33.655Z,67.47
2018-03-07T23:20:35.780Z,61.87
2018-03-07T23:25:37.139Z,60.00
2018-03-07T23:30:38.497Z,68.97
2018-03-07T23:35:39.883Z,70.20
2018-03-07T23:40:41.236Z,59.43
2018-03-07T23:45:42.600Z,67.57
2018-03-07T23:50:43.980Z,69.83
2018-03-07T23:55:45.363Z,60.77
